Time;durP1;ratioP1;P1;durP2;ratioP2;P2;SDS_P1;SDS_P2;PMS_P1;PMS_P2;Temp;Humidity;BMP_temperature;BMP_pressure;BME280_temperature;BME280_humidity;BME280_pressure;Samples;Min_cycle;Max_cycle;Signal;HPM_P1;HPM_P2
2022/09/23 00:01:40;;;;;;;;;29.50;26.00;;;;;6.28;100.00;99994.84;6279862;20;2850347;-44
2022/09/23 00:04:08;;;;;;;;;30.50;27.50;;;;;6.85;100.00;99995.25;6282412;20;2844023;-44
2022/09/23 00:06:39;;;;;;;;;30.00;26.00;;;;;6.80;100.00;99994.56;6280979;20;2853436;-45
2022/09/23 00:09:08;;;;;;;;;30.50;25.00;;;;;6.93;100.00;99990.44;6278292;20;2865920;-44
2022/09/23 00:11:37;;;;;;;;;28.50;23.00;;;;;7.07;100.00;99992.53;6282427;20;2844041;-49
2022/09/23 00:14:05;;;;;;;;;25.50;21.00;;;;;6.91;100.00;99981.63;6278295;20;2828441;-46
2022/09/23 00:16:35;;;;;;;;;23.50;20.00;;;;;6.70;100.00;99994.06;6279680;20;2831755;-46
2022/09/23 00:19:04;;;;;;;;;20.50;18.00;;;;;7.00;100.00;99988.38;6279115;20;2828470;-44
2022/09/23 00:21:32;;;;;;;;;21.50;19.50;;;;;6.75;100.00;99986.75;6280902;20;2500356;-45
2022/09/23 00:24:01;;;;;;;;;28.00;25.50;;;;;6.69;100.00;99984.34;6281136;20;2848295;-45
2022/09/23 00:26:29;;;;;;;;;29.00;24.00;;;;;6.71;100.00;99990.44;6278174;20;2500293;-45
2022/09/23 00:28:58;;;;;;;;;24.00;24.00;;;;;6.47;100.00;99986.97;6280746;20;2851332;-45
2022/09/23 00:31:27;;;;;;;;;27.50;23.50;;;;;6.88;100.00;99989.78;6279957;20;2839828;-44
2022/09/23 00:33:59;;;;;;;;;26.50;22.50;;;;;6.70;100.00;99988.72;6278580;20;2875362;-46
2022/09/23 00:36:31;;;;;;;;;26.00;22.00;;;;;6.31;100.00;99980.53;6276580;20;2848215;-46
2022/09/23 00:38:58;;;;;;;;;26.00;21.50;;;;;6.17;100.00;99975.72;6280673;20;2500408;-44
2022/09/23 00:41:27;;;;;;;;;36.50;31.00;;;;;6.53;100.00;99970.75;6277797;20;2500324;-46
2022/09/23 00:44:01;;;;;;;;;33.50;26.50;;;;;6.36;100.00;99978.53;6280261;20;2851446;-45
2022/09/23 00:46:41;;;;;;;;;45.33;34.00;;;;;6.57;100.00;99969.69;6278190;20;3631606;-46
2022/09/23 00:49:29;;;;;;;;;35.33;30.00;;;;;6.54;100.00;99960.94;6313319;20;3591249;-47
2022/09/23 00:52:10;;;;;;;;;27.00;25.50;;;;;6.59;100.00;99964.28;6306651;20;2839989;-48
2022/09/23 00:54:41;;;;;;;;;31.67;26.00;;;;;6.70;100.00;99966.50;6275789;20;2856593;-45
2022/09/23 00:57:14;;;;;;;;;34.00;27.00;;;;;6.69;100.00;99965.66;6309301;20;2862802;-44
2022/09/23 00:59:43;;;;;;;;;25.00;25.00;;;;;6.32;100.00;99971.63;6275289;20;2848225;-46
2022/09/23 01:02:13;;;;;;;;;19.50;18.50;;;;;6.21;100.00;99966.66;6278832;20;2500308;-47
2022/09/23 01:04:42;;;;;;;;;21.00;20.00;;;;;6.23;100.00;99971.97;6276282;20;2500312;-47
2022/09/23 01:07:10;;;;;;;;;25.00;21.00;;;;;6.22;100.00;99960.44;6281618;20;3578370;-46
2022/09/23 01:09:38;;;;;;;;;26.00;23.50;;;;;6.07;100.00;99964.56;6277215;20;2500308;-45
2022/09/23 01:12:36;;;;;;;;;24.00;21.00;;;;;6.26;100.00;99962.03;6277173;20;2850411;-45
2022/09/23 01:15:23;;;;;;;;;31.00;27.00;;;;;6.32;100.00;99960.94;6278163;20;2846200;-45
2022/09/23 01:18:13;;;;;;;;;23.67;22.67;;;;;6.41;100.00;99962.38;6279517;20;3582843;-44
2022/09/23 01:21:34;;;;;;;;;23.00;21.00;;;;;6.41;100.00;99967.69;6275125;20;2500266;-47
2022/09/23 01:24:32;;;;;;;;;28.50;23.50;;;;;6.14;100.00;99962.53;6275885;20;2500292;-47
2022/09/23 01:27:30;;;;;;;;;25.50;20.50;;;;;6.42;100.00;99961.44;6272652;20;2500250;-45
2022/09/23 01:30:37;;;;;;;;;23.00;23.00;;;;;6.50;100.00;99957.53;6280725;20;2846229;-45
2022/09/23 01:34:06;;;;;;;;;22.50;20.00;;;;;6.48;100.00;99958.53;6280513;20;2831547;-46
2022/09/23 01:36:50;;;;;;;;;23.00;20.50;;;;;6.32;100.00;99964.47;6271925;20;2842064;-44
2022/09/23 01:39:49;;;;;;;;;26.00;21.00;;;;;6.55;100.00;99968.00;6278498;20;2842388;-47
2022/09/23 01:43:17;;;;;;;;;28.50;24.00;;;;;6.36;100.00;99967.88;6273094;20;2500356;-46
2022/09/23 01:45:47;;;;;;;;;30.00;25.50;;;;;6.09;100.00;99960.03;6276021;20;2496170;-48
2022/09/23 01:48:51;;;;;;;;;18.00;18.00;;;;;6.29;100.00;99959.28;6276656;20;3557625;-48
2022/09/23 01:51:37;;;;;;;;;30.50;27.00;;;;;6.29;100.00;99956.59;6276883;20;2854439;-45
2022/09/23 01:54:10;;;;;;;;;26.00;22.00;;;;;6.42;100.00;99967.63;6280107;20;2840121;-45
2022/09/23 01:56:53;;;;;;;;;24.50;24.00;;;;;6.46;100.00;99963.06;6274670;20;2844022;-48
2022/09/23 01:59:39;;;;;;;;;25.00;20.00;;;;;6.36;100.00;99963.41;6274721;20;2500307;-46
2022/09/23 02:02:18;;;;;;;;;22.00;20.50;;;;;6.24;100.00;99957.69;6267783;20;2501449;-46
2022/09/23 02:05:04;;;;;;;;;24.00;22.00;;;;;5.83;100.00;99953.00;6271420;20;2500380;-47
2022/09/23 02:07:59;;;;;;;;;18.67;18.00;;;;;5.71;100.00;99945.47;6278411;20;3556526;-44
2022/09/23 02:10:36;;;;;;;;;25.00;19.00;;;;;5.43;100.00;99946.50;6305626;20;2500283;-45
2022/09/23 02:13:28;;;;;;;;;23.00;23.00;;;;;5.83;100.00;99953.00;6273886;20;3570115;-46
2022/09/23 02:16:02;;;;;;;;;21.00;21.00;;;;;5.91;100.00;99953.56;6270272;20;2500404;-47
2022/09/23 02:18:45;;;;;;;;;21.00;20.67;;;;;5.53;100.00;99948.81;6276875;20;3590048;-45
2022/09/23 02:21:15;;;;;;;;;26.00;19.50;;;;;5.25;100.00;99955.16;6275185;20;2844056;-44
2022/09/23 02:23:53;;;;;;;;;25.50;23.50;;;;;5.11;100.00;99962.72;6275796;20;2831531;-45
2022/09/23 02:26:34;;;;;;;;;24.00;20.00;;;;;5.69;100.00;99947.34;6274062;20;2839880;-49
2022/09/23 02:29:25;;;;;;;;;25.00;22.50;;;;;5.61;100.00;99955.63;6276988;20;2839882;-48
2022/09/23 02:32:32;;;;;;;;;29.00;21.50;;;;;5.38;100.00;99952.91;6272486;20;2847445;-45
2022/09/23 02:35:36;;;;;;;;;28.00;22.50;;;;;5.35;100.00;99953.03;6276321;20;2500380;-46
2022/09/23 02:38:36;;;;;;;;;32.00;27.50;;;;;5.31;100.00;99954.91;6275944;20;2500268;-47
2022/09/23 02:41:40;;;;;;;;;28.00;24.50;;;;;5.11;100.00;99952.97;6275507;20;2500298;-44
2022/09/23 02:44:14;;;;;;;;;27.50;26.00;;;;;4.87;100.00;99946.72;6271401;20;2500288;-46
2022/09/23 02:46:43;;;;;;;;;28.00;26.00;;;;;4.84;100.00;99952.09;6272255;20;2837790;-45
2022/09/23 02:49:29;;;;;;;;;70.00;54.00;;;;;4.67;100.00;99947.38;6276587;20;2883771;-45
2022/09/23 02:52:03;;;;;;;;;62.33;45.00;;;;;4.85;100.00;99945.88;6304154;20;3639900;-46
2022/09/23 02:54:34;;;;;;;;;65.00;46.33;;;;;4.87;100.00;99944.06;6304885;20;3636737;-46
2022/09/23 02:57:06;;;;;;;;;58.50;43.50;;;;;4.71;100.00;99950.78;6300433;20;2862768;-42
2022/09/23 02:59:36;;;;;;;;;55.00;43.00;;;;;4.88;100.00;99950.22;6273592;20;2861829;-42
2022/09/23 03:03:17;;;;;;;;;57.00;42.33;;;;;5.01;100.00;99957.75;6274302;20;2869162;-43
2022/09/23 03:05:56;;;;;;;;;71.33;51.33;;;;;4.95;100.00;99957.97;6300342;20;3646211;-42
2022/09/23 03:08:58;;;;;;;;;32.33;26.67;;;;;5.03;100.00;99955.91;6308273;20;2850353;-43
2022/09/23 03:11:27;;;;;;;;;30.00;23.50;;;;;4.99;100.00;99946.28;6309018;20;2858710;-43
2022/09/23 03:14:32;;;;;;;;;37.00;29.50;;;;;4.93;100.00;99948.28;6275575;20;2851469;-45
2022/09/23 03:17:46;;;;;;;;;24.00;20.50;;;;;4.78;100.00;99949.66;6273243;20;2500336;-42
2022/09/23 03:20:41;;;;;;;;;25.00;25.00;;;;;5.05;100.00;99945.19;6277440;20;2500249;-43
2022/09/23 03:23:14;;;;;;;;;31.00;26.50;;;;;4.90;100.00;99949.25;6282285;20;2848178;-45
2022/09/23 03:25:47;;;;;;;;;26.50;26.50;;;;;4.70;100.00;99951.72;6280193;20;2500396;-42
2022/09/23 03:28:19;;;;;;;;;29.50;25.00;;;;;4.96;100.00;99954.38;6281714;20;2833795;-43
2022/09/23 03:30:50;;;;;;;;;28.00;26.00;;;;;5.24;100.00;99943.63;6279991;20;2850445;-44
2022/09/23 03:33:26;;;;;;;;;33.50;26.50;;;;;5.30;100.00;99942.53;6279586;20;2854579;-44
2022/09/23 03:39:09;;;;;;;;;28.00;23.50;;;;;5.62;100.00;99938.69;6281720;20;2847412;-43
2022/09/23 03:41:49;;;;;;;;;30.50;27.00;;;;;5.15;100.00;99943.06;6281220;20;2830618;-44
2022/09/23 03:44:20;;;;;;;;;23.00;22.00;;;;;4.92;100.00;99942.06;6277425;20;2500296;-43
2022/09/23 03:46:49;;;;;;;;;29.50;28.00;;;;;4.89;100.00;99949.31;6278872;20;2842060;-43
2022/09/23 03:49:32;;;;;;;;;41.00;35.00;;;;;5.07;100.00;99946.88;6281257;20;2858707;-44
2022/09/23 03:52:02;;;;;;;;;47.67;36.00;;;;;5.14;100.00;99950.19;6307854;20;3636748;-43
2022/09/23 03:54:32;;;;;;;;;30.50;30.50;;;;;5.21;100.00;99953.50;6309743;20;2852470;-45
2022/09/23 03:57:03;;;;;;;;;46.33;35.33;;;;;4.88;100.00;99950.22;6278717;20;3628364;-44
2022/09/23 03:59:31;;;;;;;;;27.00;24.00;;;;;5.16;100.00;99950.13;6310738;20;2844142;-43
2022/09/23 04:02:01;;;;;;;;;36.00;27.00;;;;;5.26;100.00;99946.22;6282449;20;2856624;-44
2022/09/23 04:04:32;;;;;;;;;30.00;27.00;;;;;5.15;100.00;99943.94;6280452;20;2845204;-44
2022/09/23 04:07:01;;;;;;;;;26.00;22.00;;;;;5.10;100.00;99951.22;6276590;20;2500805;-43
2022/09/23 04:09:30;;;;;;;;;30.67;25.00;;;;;5.25;100.00;99956.00;6283899;20;3583604;-43
2022/09/23 04:11:59;;;;;;;;;33.00;29.50;;;;;4.72;100.00;99950.75;6283895;20;2851323;-44
2022/09/23 04:14:28;;;;;;;;;35.00;29.00;;;;;4.82;100.00;99956.63;6283230;20;2854489;-43
2022/09/23 04:16:57;;;;;;;;;31.50;30.00;;;;;4.86;100.00;99947.63;6279727;20;2841068;-44
2022/09/23 04:19:26;;;;;;;;;30.00;24.50;;;;;4.51;100.00;99957.63;6281902;20;2854510;-43
2022/09/23 04:21:53;;;;;;;;;23.50;21.00;;;;;4.51;100.00;99956.78;6280592;20;2500280;-48
2022/09/23 04:24:22;;;;;;;;;27.50;23.00;;;;;4.50;100.00;99960.34;6282647;20;2840960;-43
2022/09/23 04:26:53;;;;;;;;;30.00;26.00;;;;;4.59;100.00;99958.25;6274815;20;2500299;-43
2022/09/23 04:29:24;;;;;;;;;25.50;23.00;;;;;4.42;100.00;99963.22;6277624;20;2839881;-43
2022/09/23 04:31:53;;;;;;;;;31.50;27.50;;;;;4.51;100.00;99967.41;6279588;20;2852427;-46
2022/09/23 04:34:21;;;;;;;;;28.00;24.50;;;;;4.76;100.00;99962.13;6279860;20;2500535;-46
2022/09/23 04:36:49;;;;;;;;;32.00;29.00;;;;;4.35;100.00;99961.72;6273303;20;2496320;-42
2022/09/23 04:39:18;;;;;;;;;30.00;28.50;;;;;4.46;100.00;99959.56;6281759;20;2844162;-43
2022/09/23 04:41:47;;;;;;;;;32.00;32.00;;;;;4.59;100.00;99971.56;6277242;20;2858642;-44
2022/09/23 04:44:16;;;;;;;;;36.00;31.50;;;;;4.73;100.00;99970.22;6276775;20;2860680;-46
2022/09/23 04:46:46;;;;;;;;;38.00;31.00;;;;;4.70;100.00;99975.66;6278204;20;2868041;-44
2022/09/23 04:49:17;;;;;;;;;43.67;38.00;;;;;4.86;100.00;99965.38;6308228;20;2866914;-45
2022/09/23 04:51:46;;;;;;;;;42.00;30.50;;;;;4.92;100.00;99968.69;6310011;20;2869027;-43
2022/09/23 04:54:16;;;;;;;;;38.00;29.00;;;;;4.93;100.00;99974.91;6277246;20;3617961;-44
2022/09/23 04:56:44;;;;;;;;;34.50;30.00;;;;;4.85;100.00;99975.16;6307982;20;2850343;-43
2022/09/23 04:59:13;;;;;;;;;32.00;25.50;;;;;5.00;100.00;99965.75;6277620;20;2857671;-44
2022/09/23 05:01:41;;;;;;;;;35.50;28.50;;;;;5.17;100.00;99973.19;6273977;20;2478484;-43
2022/09/23 05:04:12;;;;;;;;;30.00;23.50;;;;;5.15;100.00;99975.00;6280014;20;2860663;-45
2022/09/23 05:06:45;;;;;;;;;35.00;27.67;;;;;4.78;100.00;99981.59;6276883;20;2860878;-47
2022/09/23 05:09:16;;;;;;;;;31.50;30.50;;;;;4.81;100.00;99986.81;6313961;20;2855514;-45
2022/09/23 05:11:46;;;;;;;;;36.67;30.00;;;;;5.04;100.00;99978.91;6279877;20;2864905;-45
2022/09/23 05:14:15;;;;;;;;;42.33;34.33;;;;;5.00;100.00;99984.38;6307665;20;3617046;-45
2022/09/23 05:16:45;;;;;;;;;39.67;30.67;;;;;5.02;100.00;99979.88;6307908;20;3610630;-43
2022/09/23 05:19:14;;;;;;;;;54.00;39.00;;;;;5.20;100.00;99981.91;6310709;20;2853388;-44
2022/09/23 05:21:43;;;;;;;;;56.50;42.00;;;;;5.15;100.00;99986.53;6282594;20;2871133;-46
2022/09/23 05:24:12;;;;;;;;;53.33;41.67;;;;;5.35;100.00;99987.66;6277742;20;2878381;-43
2022/09/23 05:26:42;;;;;;;;;50.33;39.00;;;;;5.58;100.00;99984.13;6308399;20;2861819;-44
2022/09/23 05:29:11;;;;;;;;;62.00;48.33;;;;;5.82;100.00;99983.25;6311361;20;2874241;-44
2022/09/23 05:31:41;;;;;;;;;67.67;52.00;;;;;5.96;100.00;99995.22;6308361;20;3653497;-42
2022/09/23 05:34:10;;;;;;;;;58.50;49.00;;;;;6.18;100.00;99993.47;6310925;20;2860767;-42
2022/09/23 05:36:38;;;;;;;;;57.00;46.00;;;;;6.32;100.00;99993.81;6276571;20;2861767;-44
2022/09/23 05:39:07;;;;;;;;;52.50;42.00;;;;;6.65;100.00;99990.72;6279360;20;2856646;-45
2022/09/23 05:41:37;;;;;;;;;47.50;38.50;;;;;6.80;100.00;99995.44;6274065;20;2860681;-54
2022/09/23 05:44:06;;;;;;;;;44.67;38.67;;;;;6.63;100.00;99995.22;6273837;20;3616470;-54
2022/09/23 05:46:35;;;;;;;;;42.50;36.00;;;;;6.68;100.00;100001.25;6308616;20;2858598;-53
2022/09/23 05:49:05;;;;;;;;;41.33;37.67;;;;;6.71;100.00;99995.78;6276806;20;2846235;-51
2022/09/23 05:51:34;;;;;;;;;35.00;33.33;;;;;6.96;100.00;100005.47;6311952;20;2863891;-55
2022/09/23 05:54:05;;;;;;;;;36.00;34.00;;;;;7.34;100.00;100001.16;6308987;20;2861953;-51
2022/09/23 05:56:36;;;;;;;;;31.33;28.67;;;;;8.88;100.00;100010.16;6307640;20;3602358;-53
2022/09/23 05:59:05;;;;;;;;;27.00;25.50;;;;;10.08;93.25;100010.16;6308150;20;2842198;-53
2022/09/23 06:01:37;;;;;;;;;31.00;25.67;;;;;10.18;91.03;100011.41;6279686;20;2863924;-52
2022/09/23 06:04:07;;;;;;;;;35.67;32.67;;;;;10.19;89.97;100007.78;6314920;20;3604594;-55
2022/09/23 06:06:40;;;;;;;;;32.00;30.00;;;;;11.42;86.16;100008.81;6275444;20;2853400;-54
2022/09/23 06:09:13;;;;;;;;;36.00;32.00;;;;;12.59;81.12;100007.00;6310139;20;3593075;-54
2022/09/23 06:11:42;;;;;;;;;56.00;45.00;;;;;13.99;74.21;100011.91;6277912;20;2874299;-54
2022/09/23 06:14:13;;;;;;;;;54.67;42.33;;;;;12.38;77.88;100011.94;6307048;20;3612880;-55
2022/09/23 06:16:43;;;;;;;;;43.67;37.33;;;;;10.07;88.07;100000.41;6276516;20;3602391;-54
2022/09/23 06:19:12;;;;;;;;;35.67;30.33;;;;;9.26;95.17;100000.19;6311841;20;3597167;-54
2022/09/23 06:21:40;;;;;;;;;28.00;25.00;;;;;9.46;97.40;100001.84;6268904;20;2836946;-52
2022/09/23 06:24:09;;;;;;;;;25.00;24.50;;;;;9.89;96.25;100005.78;6266543;20;2847215;-56
2022/09/23 06:26:44;;;;;;;;;23.67;22.00;;;;;9.75;96.19;100011.03;6274335;20;3573149;-54
2022/09/23 06:29:12;;;;;;;;;18.50;17.00;;;;;10.13;94.80;100017.97;6274759;20;2494055;-56
2022/09/23 06:31:40;;;;;;;;;26.50;23.00;;;;;9.89;95.39;100008.47;6277279;20;2500280;-55
2022/09/23 06:34:12;;;;;;;;;23.00;21.00;;;;;9.89;96.18;100016.53;6240430;20;2835764;-53
2022/09/23 06:36:43;;;;;;;;;22.50;19.00;;;;;10.14;95.79;100017.00;6277997;20;2837801;-45
2022/09/23 06:39:14;;;;;;;;;23.00;22.00;;;;;10.27;95.68;100018.09;6279864;20;2829580;-50
2022/09/23 06:41:44;;;;;;;;;21.50;19.00;;;;;10.35;95.14;100009.63;6279421;20;2492465;-49
2022/09/23 06:44:14;;;;;;;;;27.00;20.00;;;;;10.28;94.73;100018.03;6227381;20;2839879;-48
2022/09/23 06:46:42;;;;;;;;;20.00;20.00;;;;;10.49;94.01;100020.47;6275484;20;2828396;-47
2022/09/23 06:49:12;;;;;;;;;16.00;16.00;;;;;10.74;93.39;100022.63;6153206;20;2825403;-47
2022/09/23 06:51:42;;;;;;;;;18.00;16.17;;;;;11.21;92.59;100027.09;6307978;20;2817988;-47
2022/09/23 06:54:10;;;;;;;;;14.50;13.00;;;;;11.13;92.42;100024.84;6315863;20;2811921;-50
2022/09/23 06:56:38;;;;;;;;;15.00;14.00;;;;;11.26;90.80;100033.06;6285051;20;2792965;-46
2022/09/23 06:59:11;;;;;;;;;16.33;16.33;;;;;11.78;90.14;100035.31;6281186;20;3549233;-53
2022/09/23 07:01:40;;;;;;;;;16.33;16.00;;;;;12.23;88.85;100030.75;6281449;20;3555550;-55
2022/09/23 07:04:09;;;;;;;;;17.00;15.50;;;;;14.26;82.85;100033.41;6313706;20;2810788;-53
2022/09/23 07:06:37;;;;;;;;;11.50;11.00;;;;;18.44;64.94;100055.25;6290492;20;2798224;-53
2022/09/23 07:09:07;;;;;;;;;14.67;13.33;;;;;16.28;67.84;100041.66;6281121;20;3525408;-54
2022/09/23 07:11:36;;;;;;;;;13.67;13.00;;;;;13.42;80.26;100047.34;6313414;20;3528409;-54
2022/09/23 07:14:04;;;;;;;;;15.00;14.00;;;;;13.02;83.03;100047.28;6315209;20;2796215;-55
2022/09/23 07:16:32;;;;;;;;;12.50;12.50;;;;;13.01;85.29;100043.72;6282568;20;2803453;-53
2022/09/23 07:19:00;;;;;;;;;14.00;14.00;;;;;13.05;83.34;100047.06;6282393;20;2798238;-54
2022/09/23 07:21:28;;;;;;;;;12.50;11.00;;;;;13.03;83.97;100052.56;6283322;20;2792363;-51
2022/09/23 07:23:56;;;;;;;;;14.33;11.00;;;;;13.36;83.61;100049.50;6281887;20;3520174;-55
2022/09/23 07:26:25;;;;;;;;;13.67;12.33;;;;;13.37;82.82;100050.34;6311675;20;3515914;-54
2022/09/23 07:29:03;;;;;;;;;14.33;12.67;;;;;13.52;81.82;100051.16;6308547;20;3520288;-53
2022/09/23 07:31:34;;;;;;;;;14.33;13.00;;;;;13.47;81.36;100051.47;6307840;20;3531684;-53
2022/09/23 07:34:10;;;;;;;;;15.50;15.00;;;;;13.70;81.26;100044.50;6317345;20;2816097;-57
2022/09/23 07:36:39;;;;;;;;;17.33;15.67;;;;;14.30;79.52;100056.53;6281604;20;3554459;-53
2022/09/23 07:39:11;;;;;;;;;14.50;14.00;;;;;14.25;78.71;100054.16;6319524;20;2797171;-56
2022/09/23 07:41:43;;;;;;;;;15.60;13.00;;;;;14.24;78.07;100055.13;6305304;20;2799380;-55
2022/09/23 07:44:11;;;;;;;;;13.50;11.00;;;;;14.57;76.13;100053.69;6287307;20;2798254;-57
2022/09/23 07:46:39;;;;;;;;;11.00;11.00;;;;;15.14;74.53;100066.63;6286613;20;2785799;-55
2022/09/23 07:49:09;;;;;;;;;12.00;12.00;;;;;15.09;74.16;100067.97;6285330;20;2786811;-60
2022/09/23 07:51:39;;;;;;;;;10.50;7.50;;;;;15.02;73.66;100063.97;6314734;20;2747187;-60
2022/09/23 07:54:13;;;;;;;;;8.00;8.00;;;;;15.25;72.83;100076.66;6285038;20;2739901;-60
2022/09/23 07:56:43;;;;;;;;;12.00;12.00;;;;;15.33;74.18;100073.38;6280866;20;2794152;-59
2022/09/23 07:59:17;;;;;;;;;9.40;8.20;;;;;15.53;71.64;100064.63;6337285;20;2759657;-60
2022/09/23 08:01:51;;;;;;;;;9.33;9.00;;;;;15.80;70.89;100068.91;6310420;20;2759680;-60
2022/09/23 08:04:28;;;;;;;;;8.40;8.00;;;;;15.40;70.41;100068.34;6339545;20;2752777;-44
2022/09/23 08:07:03;;;;;;;;;7.00;7.00;;;;;15.55;71.87;100068.03;6208461;20;2729480;-53
2022/09/23 08:09:41;;;;;;;;;9.00;7.00;;;;;15.79;69.50;100059.91;6242482;20;2748265;-53
2022/09/23 08:12:18;;;;;;;;;12.00;10.00;;;;;15.95;69.28;100070.41;6284950;20;2782703;-52
2022/09/23 08:14:47;;;;;;;;;11.80;10.00;;;;;15.77;69.82;100078.13;6308552;20;2786743;-55
2022/09/23 08:17:15;;;;;;;;;9.00;9.00;;;;;15.67;70.36;100059.97;6278063;20;2751492;-54
2022/09/23 08:19:44;;;;;;;;;8.33;8.33;;;;;15.82;70.33;100068.78;6283021;20;2754542;-54
2022/09/23 08:22:12;;;;;;;;;7.67;7.67;;;;;15.92;69.47;100064.38;6312214;20;2754609;-53
2022/09/23 08:24:42;;;;;;;;;10.80;8.20;;;;;16.39;69.63;100059.78;6339953;20;2774406;-51
2022/09/23 08:27:11;;;;;;;;;11.00;9.00;;;;;17.03;66.74;100056.41;6302501;20;2764907;-53
2022/09/23 08:29:39;;;;;;;;;8.00;7.00;;;;;16.48;68.66;100060.88;6280158;20;2735840;-55
2022/09/23 08:32:09;;;;;;;;;8.20;8.20;;;;;16.75;67.70;100069.50;6308661;20;2744029;-57
2022/09/23 08:34:38;;;;;;;;;8.80;8.80;;;;;16.02;69.41;100065.41;6320298;20;2748194;-57
2022/09/23 08:37:10;;;;;;;;;9.33;9.00;;;;;15.30;72.41;100057.38;6309137;20;2759744;-52
2022/09/23 08:39:38;;;;;;;;;9.00;9.00;;;;;15.73;71.25;100063.09;6314248;20;2750290;-55
2022/09/23 08:42:19;;;;;;;;;7.60;7.60;;;;;15.43;71.19;100051.88;6301835;20;2750283;-54
2022/09/23 08:45:04;;;;;;;;;10.00;9.60;;;;;15.17;72.99;100059.28;6303521;20;2798238;-54
2022/09/23 08:48:05;;;;;;;;;13.50;9.50;;;;;15.52;72.44;100056.59;6285813;20;2781678;-55
2022/09/23 08:50:47;;;;;;;;;8.50;8.00;;;;;15.13;71.58;100048.66;6288144;20;2735764;-56
2022/09/23 08:53:29;;;;;;;;;7.00;6.00;;;;;15.29;71.56;100044.81;6320099;20;3459666;-55
2022/09/23 08:56:21;;;;;;;;;7.00;5.00;;;;;16.22;67.25;100039.47;6312169;20;2752350;-54
2022/09/23 08:59:13;;;;;;;;;9.00;7.50;;;;;16.39;66.34;100040.81;6286520;20;2743046;-52
2022/09/23 09:01:51;;;;;;;;;6.43;6.43;;;;;16.49;67.48;100046.34;6327425;20;3461742;-55
2022/09/23 09:04:35;;;;;;;;;7.40;6.00;;;;;17.38;63.43;100047.19;6334978;20;2727403;-55
2022/09/23 09:07:37;;;;;;;;;9.00;6.00;;;;;17.41;62.73;100052.38;6314338;20;2740923;-55
2022/09/23 09:10:25;;;;;;;;;0.00;0.00;;;;;17.52;60.90;100047.75;6282856;20;1794523;-57
2022/09/23 09:13:09;;;;;;;;;8.50;7.00;;;;;17.31;60.64;100047.69;6314275;20;2753439;-54
2022/09/23 09:16:08;;;;;;;;;5.50;3.00;;;;;17.60;61.66;100049.81;6278095;20;2738895;-61
2022/09/23 09:18:52;;;;;;;;;6.00;5.00;;;;;17.19;60.91;100047.88;6283729;20;2739907;-45
2022/09/23 09:21:34;;;;;;;;;6.00;6.00;;;;;17.48;60.45;100050.84;6285590;20;2738800;-48
2022/09/23 09:24:18;;;;;;;;;7.00;7.00;;;;;16.73;62.70;100054.34;6282827;20;2748275;-49
2022/09/23 09:26:48;;;;;;;;;4.40;4.40;;;;;16.79;63.06;100043.88;6303826;20;2747204;-50
2022/09/23 09:29:41;;;;;;;;;10.00;8.00;;;;;17.21;61.29;100049.47;6336789;20;2760834;-51
2022/09/23 09:32:37;;;;;;;;;6.00;6.00;;;;;17.51;61.34;100040.59;6304677;20;2744085;-47
2022/09/23 09:35:28;;;;;;;;;6.60;5.60;;;;;18.43;58.70;100043.53;6334925;20;2737864;-45
2022/09/23 09:37:57;;;;;;;;;8.00;6.20;;;;;18.13;58.28;100047.06;6334767;20;2737797;-49
2022/09/23 09:40:29;;;;;;;;;6.86;6.86;;;;;16.95;61.51;100042.63;6356044;20;3457573;-45
2022/09/23 09:42:58;;;;;;;;;6.60;6.60;;;;;16.17;62.70;100038.97;6334107;20;2738921;-46
2022/09/23 09:46:44;;;;;;;;;9.50;7.00;;;;;17.39;60.23;100043.50;6308953;20;2756761;-46
2022/09/23 09:49:52;;;;;;;;;7.00;7.00;;;;;15.87;64.68;100037.66;6283106;20;2752493;-45
2022/09/23 09:52:28;;;;;;;;;10.00;8.00;;;;;15.81;65.58;100035.44;6283615;20;2770039;-47
2022/09/23 09:55:25;;;;;;;;;6.50;6.50;;;;;15.37;65.84;100028.84;6283670;20;2742092;-45
2022/09/23 09:58:04;;;;;;;;;9.00;7.00;;;;;16.94;62.09;100030.06;6280040;20;2758665;-45
2022/09/23 10:00:44;;;;;;;;;7.00;5.40;;;;;17.03;61.96;100019.28;6305510;20;2748242;-46
2022/09/23 10:03:12;;;;;;;;;8.50;8.00;;;;;17.13;59.89;100022.09;6280518;20;2744293;-60
2022/09/23 10:05:48;;;;;;;;;5.50;5.50;;;;;17.72;60.97;100021.63;6287538;20;2734630;-60
2022/09/23 10:08:36;;;;;;;;;8.00;7.00;;;;;18.04;58.32;100025.28;6283764;20;2739898;-61
2022/09/23 10:11:16;;;;;;;;;10.00;8.50;;;;;18.25;58.14;100022.53;6288555;20;2760767;-60
2022/09/23 10:14:12;;;;;;;;;9.50;7.00;;;;;17.93;58.53;100018.03;6285900;20;2753550;-60
2022/09/23 10:16:41;;;;;;;;;8.50;8.50;;;;;17.86;59.65;100022.31;6281459;20;2751346;-60
2022/09/23 10:19:27;;;;;;;;;9.00;9.00;;;;;17.76;59.68;100017.63;6303903;20;2764914;-61
2022/09/23 10:22:03;;;;;;;;;9.50;9.50;;;;;18.70;59.56;100011.28;6280605;20;2773432;-60
2022/09/23 10:24:35;;;;;;;;;7.50;7.00;;;;;18.73;57.43;100017.28;6283092;20;2734756;-61
2022/09/23 10:27:10;;;;;;;;;9.00;9.00;;;;;17.82;58.54;100004.53;6299946;20;1895016;-60
2022/09/23 10:29:50;;;;;;;;;8.00;8.00;;;;;17.74;61.02;100000.59;6307686;20;2748230;-60
2022/09/23 10:32:37;;;;;;;;;7.00;7.00;;;;;17.15;61.97;100001.16;6308288;20;2746121;-60
2022/09/23 10:35:07;;;;;;;;;7.00;5.50;;;;;17.50;62.59;99995.44;6314629;20;2737761;-60
2022/09/23 10:37:42;;;;;;;;;9.00;8.00;;;;;17.68;61.39;100001.13;6281822;20;2751423;-60
2022/09/23 10:46:48;;;;;;;;;8.00;7.00;;;;;17.40;61.70;100002.63;6284721;20;2748209;-61
2022/09/23 10:50:17;;;;;;;;;7.40;5.80;;;;;17.16;62.67;100008.28;6305797;20;2738934;-60
2022/09/23 10:52:58;;;;;;;;;6.40;6.20;;;;;16.95;64.13;100000.09;6335044;20;2741944;-60
2022/09/23 10:56:32;;;;;;;;;7.80;7.80;;;;;16.70;62.49;99994.97;6336472;20;2741958;-61
2022/09/23 11:00:16;;;;;;;;;8.00;8.00;;;;;16.43;61.77;99994.38;6333186;20;2688889;-61
2022/09/23 11:03:40;;;;;;;;;8.00;8.00;;;;;16.57;63.78;99995.09;6306406;20;2736872;-60
2022/09/23 11:06:42;;;;;;;;;7.00;7.00;;;;;16.64;64.48;99990.88;6303551;20;2739881;-54
2022/09/23 11:10:10;;;;;;;;;10.50;9.50;;;;;16.51;63.61;99991.03;6307101;20;2768012;-54
2022/09/23 11:13:51;;;;;;;;;8.00;8.00;;;;;16.32;63.52;99993.50;6285024;20;2744067;-51
2022/09/23 11:17:21;;;;;;;;;6.00;6.00;;;;;16.44;64.51;99974.41;6296492;20;2744105;-43
2022/09/23 11:20:30;;;;;;;;;9.60;7.40;;;;;16.55;64.36;99975.38;6331472;20;2769161;-44
2022/09/23 11:23:42;;;;;;;;;9.00;9.00;;;;;16.08;64.24;99972.81;6304935;20;2748201;-43
2022/09/23 11:27:03;;;;;;;;;8.60;8.60;;;;;16.40;63.17;99972.94;6334054;20;2751473;-43
2022/09/23 11:30:13;;;;;;;;;8.80;8.40;;;;;16.34;63.50;99969.84;6336064;20;2762847;-44
2022/09/23 11:33:13;;;;;;;;;8.14;7.00;;;;;16.17;64.04;99968.53;6322359;20;3453434;-42
2022/09/23 11:35:55;;;;;;;;;7.60;7.60;;;;;16.14;63.33;99971.44;6330659;20;2728456;-46
2022/09/23 11:38:34;;;;;;;;;9.80;9.40;;;;;16.32;63.74;99964.53;6333130;20;2760811;-52
2022/09/23 11:41:28;;;;;;;;;9.00;8.00;;;;;16.19;62.40;99969.22;6291349;20;2756669;-46
2022/09/23 11:44:28;;;;;;;;;8.00;8.00;;;;;16.16;64.22;99958.66;6306259;20;2754631;-52
2022/09/23 11:47:07;;;;;;;;;6.60;6.60;;;;;16.16;62.76;99964.06;6308221;20;2730544;-44
2022/09/23 11:50:26;;;;;;;;;11.00;9.20;;;;;16.11;61.24;99956.31;6338454;20;2785867;-43
2022/09/23 11:53:47;;;;;;;;;7.80;6.60;;;;;16.31;62.55;99957.41;6312171;20;2744024;-47
2022/09/23 11:56:43;;;;;;;;;8.29;7.00;;;;;16.22;62.81;99950.91;6356326;20;3453387;-42
2022/09/23 11:59:53;;;;;;;;;8.60;8.60;;;;;16.26;61.92;99951.50;6336608;20;2753414;-45
2022/09/23 12:02:47;;;;;;;;;8.50;8.50;;;;;16.09;62.50;99946.56;6283874;20;2735829;-44
2022/09/23 12:05:43;;;;;;;;;9.00;7.50;;;;;16.27;63.01;99950.50;6288141;20;2746127;-43
2022/09/23 12:08:38;;;;;;;;;7.00;7.00;;;;;16.02;62.97;99951.63;6305260;20;2738297;-43
2022/09/23 12:12:00;;;;;;;;;9.00;8.00;;;;;16.35;62.73;99944.47;6341485;20;2754454;-48